Time;durP1;ratioP1;P1;durP2;ratioP2;P2;SDS_P1;SDS_P2;PMS_P1;PMS_P2;Temp;Humidity;BMP_temperature;BMP_pressure;BME280_temperature;BME280_humidity;BME280_pressure;Samples;Min_cycle;Max_cycle;Signal;HPM_P1;HPM_P2
2022/07/06 00:01:09;;;;;;;;;4.67;4.00;;;;;19.99;45.43;102283.69;5099834;27;45150;-47
2022/07/06 00:03:35;;;;;;;;;5.25;4.00;;;;;19.96;45.63;102285.88;5099399;27;45384;-62
2022/07/06 00:06:01;;;;;;;;;3.50;3.25;;;;;19.91;45.23;102281.84;5099536;27;45270;-62
2022/07/06 00:08:26;;;;;;;;;7.00;5.00;;;;;19.89;46.12;102277.66;5099583;27;45372;-61
2022/07/06 00:10:51;;;;;;;;;2.00;2.00;;;;;19.89;45.91;102281.19;5099548;27;45342;-45
2022/07/06 00:13:17;;;;;;;;;4.00;3.00;;;;;19.85;46.00;102287.09;5099352;27;47122;-48
2022/07/06 00:15:42;;;;;;;;;3.67;3.67;;;;;19.84;46.00;102286.22;5099131;27;45446;-63
2022/07/06 00:18:08;;;;;;;;;5.00;5.00;;;;;19.86;46.34;102288.78;5099446;27;45304;-61
2022/07/06 00:20:33;;;;;;;;;4.67;4.33;;;;;19.83;46.38;102270.22;5099496;27;45407;-62
2022/07/06 00:22:59;;;;;;;;;3.67;3.67;;;;;19.82;46.03;102280.16;5099013;27;46184;-45
2022/07/06 00:25:24;;;;;;;;;4.00;4.00;;;;;19.78;46.47;102284.22;5099093;27;45350;-47
2022/07/06 00:27:49;;;;;;;;;2.67;2.67;;;;;19.75;46.26;102281.00;5097679;27;45379;-45
2022/07/06 00:30:15;;;;;;;;;3.00;3.00;;;;;19.73;46.47;102289.28;5099684;27;45437;-47
2022/07/06 00:32:40;;;;;;;;;4.33;4.00;;;;;19.69;46.99;102283.38;5099759;27;45323;-47
2022/07/06 00:35:06;;;;;;;;;4.33;4.33;;;;;19.69;46.86;102285.25;5099701;27;45329;-60
2022/07/06 00:37:31;;;;;;;;;3.33;3.33;;;;;19.65;46.83;102287.44;5100346;27;45463;-53
2022/07/06 00:39:57;;;;;;;;;3.33;3.33;;;;;19.63;47.13;102285.91;5100041;27;45316;-55
2022/07/06 00:42:24;;;;;;;;;3.00;3.00;;;;;19.60;47.34;102287.06;5100448;27;45615;-58
2022/07/06 00:44:49;;;;;;;;;4.33;3.00;;;;;19.58;47.79;102286.38;5100528;27;45216;-61
2022/07/06 00:47:15;;;;;;;;;2.00;0.33;;;;;19.55;47.46;102280.47;5100637;27;45439;-58
2022/07/06 00:52:24;;;;;;;;;6.00;4.00;;;;;19.51;47.90;102271.03;5101414;27;45264;-57
2022/07/06 00:54:51;;;;;;;;;5.00;5.00;;;;;19.53;47.72;102280.66;5100733;27;45355;-48
2022/07/06 00:57:17;;;;;;;;;5.00;3.00;;;;;19.51;47.65;102276.41;5100684;27;45327;-60
2022/07/06 00:59:42;;;;;;;;;3.00;3.00;;;;;19.47;47.81;102277.75;5098798;27;45454;-45
2022/07/06 01:02:08;;;;;;;;;4.33;3.00;;;;;19.47;48.14;102278.63;5098505;27;45334;-53
2022/07/06 01:04:33;;;;;;;;;4.33;2.00;;;;;19.45;47.97;102272.53;5098644;27;45422;-59
2022/07/06 01:06:58;;;;;;;;;3.67;3.67;;;;;19.36;47.95;102268.16;5098159;27;45392;-44
2022/07/06 01:09:24;;;;;;;;;2.67;2.67;;;;;19.39;48.23;102284.03;5098703;27;45449;-62
2022/07/06 01:11:51;;;;;;;;;5.00;4.00;;;;;19.36;48.32;102274.41;5098335;27;46094;-57
2022/07/06 01:14:17;;;;;;;;;4.33;3.33;;;;;19.34;48.02;102278.25;5097947;27;45455;-55
2022/07/06 01:16:43;;;;;;;;;4.33;3.00;;;;;19.31;48.67;102284.00;5098491;27;45341;-59
2022/07/06 01:19:08;;;;;;;;;5.67;2.67;;;;;19.24;48.80;102274.88;5098708;27;45438;-46
2022/07/06 01:21:37;;;;;;;;;3.00;3.00;;;;;19.22;48.77;102276.94;5098263;27;45425;-61
2022/07/06 01:24:02;;;;;;;;;4.00;2.00;;;;;19.22;49.18;102276.94;5098064;27;45309;-59
2022/07/06 01:26:28;;;;;;;;;5.00;3.00;;;;;19.18;49.06;102285.34;5098126;27;45687;-52
2022/07/06 01:28:53;;;;;;;;;3.00;3.00;;;;;19.15;49.04;102290.22;5098170;27;45457;-61
2022/07/06 01:31:23;;;;;;;;;3.67;3.33;;;;;19.13;48.96;102287.69;5097776;27;45966;-49
2022/07/06 01:33:51;;;;;;;;;4.00;3.00;;;;;19.10;49.36;102288.03;5098269;27;45478;-48
2022/07/06 01:36:17;;;;;;;;;4.67;3.00;;;;;19.11;50.00;102281.59;5097971;27;45374;-60
2022/07/06 01:38:48;;;;;;;;;3.00;3.00;;;;;19.06;49.18;102270.47;5098291;27;45661;-61
2022/07/06 01:41:13;;;;;;;;;3.33;3.33;;;;;19.09;49.06;102278.25;5097804;27;46094;-57
2022/07/06 01:43:39;;;;;;;;;3.00;3.00;;;;;19.08;49.36;102281.94;5097641;27;45343;-57
2022/07/06 01:46:05;;;;;;;;;2.00;2.00;;;;;19.07;49.80;102276.72;5098032;27;45213;-44
2022/07/06 01:48:30;;;;;;;;;6.00;3.00;;;;;19.06;50.02;102277.72;5098220;27;45268;-50
2022/07/06 01:50:56;;;;;;;;;3.67;3.67;;;;;19.07;49.72;102280.25;5097892;27;46079;-58
2022/07/06 01:53:21;;;;;;;;;3.67;3.67;;;;;19.03;49.67;102280.75;5097885;27;45312;-45
2022/07/06 01:55:46;;;;;;;;;4.00;4.00;;;;;19.05;49.87;102278.75;5098022;27;45377;-44
2022/07/06 01:58:12;;;;;;;;;4.67;4.67;;;;;19.03;49.79;102284.28;5097921;27;45220;-45
2022/07/06 02:00:37;;;;;;;;;4.00;4.00;;;;;19.02;49.99;102288.00;5097480;27;45232;-48
2022/07/06 02:03:02;;;;;;;;;5.00;4.00;;;;;19.04;49.56;102283.28;5097613;27;45441;-54
2022/07/06 02:05:28;;;;;;;;;3.00;2.00;;;;;19.05;49.84;102276.03;5097674;27;45418;-53
2022/07/06 02:07:53;;;;;;;;;5.67;5.67;;;;;19.04;49.75;102280.56;5097809;27;45417;-54
2022/07/06 02:10:19;;;;;;;;;5.00;4.67;;;;;19.04;49.77;102269.78;5097600;27;45514;-47
2022/07/06 02:12:44;;;;;;;;;4.00;4.00;;;;;19.03;49.87;102278.06;5097432;27;45346;-57
2022/07/06 02:15:10;;;;;;;;;5.33;4.00;;;;;19.00;49.75;102279.22;5097261;27;45311;-58
2022/07/06 02:17:35;;;;;;;;;6.67;4.33;;;;;18.97;50.04;102271.47;5097588;27;45407;-47
2022/07/06 02:20:00;;;;;;;;;3.67;3.67;;;;;18.98;49.77;102270.47;5099540;27;45435;-56
2022/07/06 02:22:26;;;;;;;;;6.33;5.00;;;;;18.96;49.93;102272.47;5100824;27;45442;-45
2022/07/06 02:24:51;;;;;;;;;5.33;4.00;;;;;18.92;50.01;102271.13;5101318;27;45319;-59
2022/07/06 02:27:16;;;;;;;;;6.67;6.33;;;;;18.89;49.80;102271.44;5101330;27;45522;-45
2022/07/06 02:29:42;;;;;;;;;5.33;5.33;;;;;18.90;49.92;102278.53;5100783;27;46276;-48
2022/07/06 02:32:07;;;;;;;;;5.00;5.00;;;;;18.87;50.16;102262.66;5100595;27;45468;-46
2022/07/06 02:34:33;;;;;;;;;4.67;4.67;;;;;18.86;50.29;102261.81;5101187;27;45290;-48
2022/07/06 02:37:00;;;;;;;;;6.00;5.33;;;;;18.85;50.31;102260.16;5101128;27;45194;-54
2022/07/06 02:39:25;;;;;;;;;6.33;4.67;;;;;18.84;50.24;102261.16;5100718;27;46105;-48
2022/07/06 02:41:51;;;;;;;;;6.33;6.33;;;;;18.81;50.32;102260.63;5100802;27;45289;-50
2022/07/06 02:44:16;;;;;;;;;9.00;6.00;;;;;18.82;50.44;102262.31;5099116;27;45608;-49
2022/07/06 02:46:41;;;;;;;;;6.00;5.00;;;;;18.80;50.32;102259.78;5101027;27;45332;-50
2022/07/06 02:49:07;;;;;;;;;8.00;5.00;;;;;18.79;50.55;102263.47;5100570;27;46206;-62
2022/07/06 02:51:32;;;;;;;;;4.67;4.00;;;;;18.80;50.45;102261.66;5100629;27;45323;-47
2022/07/06 02:53:57;;;;;;;;;4.00;2.33;;;;;18.77;50.49;102268.22;5100749;27;45410;-46
2022/07/06 02:56:23;;;;;;;;;6.00;4.67;;;;;18.75;50.62;102274.75;5100822;27;45382;-53
2022/07/06 02:58:48;;;;;;;;;7.00;5.33;;;;;18.37;50.64;102215.81;5100438;27;47123;-61
2022/07/06 03:01:13;;;;;;;;;6.00;4.00;;;;;18.76;50.43;102276.47;5100376;27;45389;-60
2022/07/06 03:03:39;;;;;;;;;7.33;6.00;;;;;18.75;50.54;102280.16;5100458;27;45308;-48
2022/07/06 03:06:04;;;;;;;;;5.00;4.00;;;;;18.74;50.49;102283.84;5100732;27;45367;-47
2022/07/06 03:08:30;;;;;;;;;6.67;5.00;;;;;18.59;50.64;102257.50;5100231;27;47404;-53
2022/07/06 03:10:55;;;;;;;;;5.33;5.00;;;;;18.65;50.60;102274.88;5100429;27;45414;-48
2022/07/06 03:13:20;;;;;;;;;6.00;6.00;;;;;18.69;50.74;102284.31;5100578;27;45320;-49
2022/07/06 03:15:46;;;;;;;;;6.00;6.00;;;;;18.69;50.73;102287.88;5098896;27;45454;-50
2022/07/06 03:18:11;;;;;;;;;5.67;5.67;;;;;18.68;50.45;102288.88;5100133;27;45907;-49
2022/07/06 03:20:36;;;;;;;;;8.67;7.67;;;;;18.63;50.42;102283.13;5100051;27;45449;-45
2022/07/06 03:23:02;;;;;;;;;5.33;5.33;;;;;18.64;50.73;102281.28;5100537;27;45395;-45
2022/07/06 03:25:27;;;;;;;;;4.67;4.00;;;;;18.62;50.74;102284.09;5100290;27;45446;-48
2022/07/06 03:27:52;;;;;;;;;5.67;5.67;;;;;18.62;50.85;102285.97;5099944;27;46297;-49
2022/07/06 03:30:18;;;;;;;;;5.33;5.33;;;;;18.56;50.72;102279.38;5099510;27;45283;-48
2022/07/06 03:32:43;;;;;;;;;5.00;5.00;;;;;18.54;51.16;102284.09;5100122;27;45303;-47
2022/07/06 03:35:08;;;;;;;;;6.00;5.00;;;;;18.58;51.04;102293.56;5100222;27;45205;-46
2022/07/06 03:37:34;;;;;;;;;5.67;5.67;;;;;18.58;51.01;102295.38;5099689;27;46064;-52
2022/07/06 03:39:59;;;;;;;;;5.67;5.67;;;;;18.58;51.00;102295.38;5100049;27;45314;-44
2022/07/06 03:42:24;;;;;;;;;3.00;3.00;;;;;18.46;50.95;102286.75;5100069;27;45342;-59
2022/07/06 03:44:50;;;;;;;;;6.00;4.67;;;;;18.54;50.90;102292.19;5099851;27;45387;-45
2022/07/06 03:47:15;;;;;;;;;7.67;6.00;;;;;18.53;51.28;102301.25;5099579;27;45440;-47
2022/07/06 03:49:40;;;;;;;;;5.33;5.00;;;;;18.52;51.47;102294.19;5099762;27;45308;-56
2022/07/06 03:52:06;;;;;;;;;6.00;6.00;;;;;18.52;51.40;102298.72;5099754;27;45401;-62
2022/07/06 03:54:31;;;;;;;;;7.00;5.00;;;;;18.48;51.49;102300.91;5100006;27;45331;-47
2022/07/06 03:56:56;;;;;;;;;7.67;7.67;;;;;18.47;51.36;102299.22;5099473;27;45385;-49
2022/07/06 03:59:22;;;;;;;;;11.00;6.00;;;;;18.45;51.53;102296.66;5099570;27;45507;-57
2022/07/06 04:01:47;;;;;;;;;8.33;4.67;;;;;18.45;51.44;102303.91;5099275;27;45291;-57
2022/07/06 04:04:12;;;;;;;;;6.00;5.00;;;;;18.45;51.56;102303.91;5099654;27;45311;-48
2022/07/06 04:06:38;;;;;;;;;5.33;5.33;;;;;18.43;51.21;102306.78;5099223;27;46196;-47
2022/07/06 04:09:03;;;;;;;;;5.33;4.33;;;;;18.43;51.32;102293.31;5099421;27;45355;-50
2022/07/06 04:11:29;;;;;;;;;4.00;4.00;;;;;18.44;51.48;102304.91;5099661;27;45232;-52
2022/07/06 04:13:55;;;;;;;;;6.00;5.00;;;;;18.44;51.34;102307.59;5099548;27;45404;-54
2022/07/06 04:16:20;;;;;;;;;4.00;4.00;;;;;18.35;51.47;102295.09;5099122;27;45529;-48
2022/07/06 04:18:46;;;;;;;;;7.00;6.00;;;;;18.44;51.30;102318.38;5097862;27;45501;-50
2022/07/06 04:21:11;;;;;;;;;6.67;6.00;;;;;18.41;51.53;102310.63;5099197;27;45313;-47
2022/07/06 04:23:36;;;;;;;;;9.33;6.33;;;;;18.30;51.50;102282.13;5099496;27;45439;-54
2022/07/06 04:26:02;;;;;;;;;5.67;5.67;;;;;18.44;51.60;102311.16;5098737;27;45399;-62
2022/07/06 04:28:27;;;;;;;;;7.00;5.00;;;;;18.46;51.50;102308.31;5099050;27;45420;-47
2022/07/06 04:30:52;;;;;;;;;6.00;5.00;;;;;18.47;51.67;102309.16;5098819;27;45420;-63
2022/07/06 04:33:18;;;;;;;;;6.67;5.33;;;;;18.45;51.38;102306.59;5099156;27;45316;-46
2022/07/06 04:35:43;;;;;;;;;8.00;5.00;;;;;18.46;51.65;102311.00;5099420;27;45897;-48
2022/07/06 04:38:08;;;;;;;;;7.00;4.67;;;;;18.47;51.60;102312.69;5099084;27;45441;-60
2022/07/06 04:40:34;;;;;;;;;7.00;5.00;;;;;18.48;51.55;102313.53;5099285;27;45282;-46
2022/07/06 04:42:59;;;;;;;;;6.00;6.00;;;;;18.50;51.44;102312.38;5098440;27;45590;-48
2022/07/06 04:45:25;;;;;;;;;6.00;6.00;;;;;18.50;51.56;102306.97;5098677;27;45410;-60
2022/07/06 04:47:50;;;;;;;;;9.33;6.00;;;;;18.50;51.42;102306.97;5098784;27;45289;-61
2022/07/06 04:50:16;;;;;;;;;5.67;4.00;;;;;18.53;51.47;102309.34;5098867;27;45195;-63
2022/07/06 04:52:41;;;;;;;;;6.00;5.00;;;;;18.54;51.55;102307.47;5099207;27;45188;-54
2022/07/06 04:55:08;;;;;;;;;5.67;5.00;;;;;18.54;51.28;102305.66;5098478;27;46841;-59
2022/07/06 04:57:34;;;;;;;;;5.67;5.67;;;;;18.56;51.27;102317.09;5098553;27;45281;-44
2022/07/06 04:59:59;;;;;;;;;7.00;7.00;;;;;18.57;51.39;102313.41;5098612;27;45414;-62
2022/07/06 05:02:24;;;;;;;;;10.67;5.00;;;;;18.56;51.17;102302.78;5098489;27;45425;-48
2022/07/06 05:04:50;;;;;;;;;6.00;5.67;;;;;18.56;51.12;102313.56;5098450;27;45333;-61
2022/07/06 05:07:16;;;;;;;;;5.33;5.33;;;;;18.58;51.19;102300.75;5114352;27;45424;-51
2022/07/06 05:09:41;;;;;;;;;4.00;4.00;;;;;18.62;50.85;102304.81;5098261;27;45733;-47
2022/07/06 05:12:07;;;;;;;;;7.00;6.00;;;;;18.63;50.75;102310.06;5098693;27;45399;-48
2022/07/06 05:14:33;;;;;;;;;6.00;5.00;;;;;18.66;50.82;102308.88;5098188;27;46585;-48
2022/07/06 05:16:58;;;;;;;;;9.00;6.00;;;;;18.68;50.51;102314.97;5097913;27;45340;-46
2022/07/06 05:19:24;;;;;;;;;8.00;8.00;;;;;18.67;50.54;102314.13;5098223;27;45223;-49
2022/07/06 05:21:49;;;;;;;;;5.00;5.00;;;;;18.69;50.26;102312.16;5098516;27;45429;-45
2022/07/06 05:24:15;;;;;;;;;5.00;5.00;;;;;18.70;50.37;102312.97;5097955;27;46248;-47
2022/07/06 05:26:41;;;;;;;;;6.00;5.33;;;;;18.72;50.43;102316.38;5097877;27;45260;-46
2022/07/06 05:29:06;;;;;;;;;5.67;5.67;;;;;18.67;50.42;102311.44;5098143;27;45315;-53
2022/07/06 05:31:32;;;;;;;;;8.00;5.33;;;;;18.75;50.67;102318.75;5098335;27;45302;-49
2022/07/06 05:33:57;;;;;;;;;6.67;6.00;;;;;18.77;50.78;102315.88;5097775;27;45437;-45
2022/07/06 05:36:22;;;;;;;;;7.33;6.00;;;;;18.68;50.77;102296.94;5098248;27;45352;-49
2022/07/06 05:38:48;;;;;;;;;7.00;7.00;;;;;18.76;50.80;102304.28;5097987;27;45805;-49
2022/07/06 05:41:13;;;;;;;;;9.00;7.00;;;;;18.85;50.43;102307.84;5097094;27;45478;-46
2022/07/06 05:43:39;;;;;;;;;6.00;5.33;;;;;18.79;50.66;102297.69;5097855;27;45556;-47
2022/07/06 05:46:04;;;;;;;;;9.33;6.00;;;;;18.91;50.34;102309.88;5097697;27;45443;-47
2022/07/06 05:51:13;;;;;;;;;6.00;6.00;;;;;19.01;50.01;102317.84;5098110;27;45343;-49
2022/07/06 05:53:39;;;;;;;;;9.00;7.00;;;;;19.03;50.19;102324.75;5096386;27;47254;-47
2022/07/06 05:56:04;;;;;;;;;7.50;6.00;;;;;19.00;50.03;102321.53;5096497;27;45532;-47
2022/07/06 05:58:30;;;;;;;;;8.33;6.33;;;;;19.11;49.62;102338.25;5097658;27;45357;-47
2022/07/06 06:00:55;;;;;;;;;8.00;6.67;;;;;19.15;49.40;102336.91;5097852;27;45315;-48
2022/07/06 06:03:20;;;;;;;;;5.00;5.00;;;;;19.17;49.32;102337.63;5097479;27;47105;-48
2022/07/06 06:05:46;;;;;;;;;6.00;6.00;;;;;19.25;49.11;102335.94;5097484;27;45391;-55
2022/07/06 06:08:11;;;;;;;;;8.67;6.67;;;;;19.18;48.69;102323.09;5097577;27;45231;-52
2022/07/06 06:10:37;;;;;;;;;8.33;5.67;;;;;19.34;48.65;102340.31;5097588;27;45515;-50
2022/07/06 06:13:02;;;;;;;;;5.67;4.00;;;;;19.39;48.16;102340.69;5097562;27;46157;-49
2022/07/06 06:15:27;;;;;;;;;6.00;6.00;;;;;19.47;47.51;102345.25;5097523;27;45441;-53
2022/07/06 06:17:53;;;;;;;;;5.00;4.00;;;;;19.50;46.52;102339.50;5097360;27;45482;-60
2022/07/06 06:20:18;;;;;;;;;4.00;4.00;;;;;19.57;46.80;102336.00;5097831;27;45370;-48
2022/07/06 06:22:51;;;;;;;;;5.00;4.00;;;;;19.63;46.53;102334.50;5097263;27;46254;-50
2022/07/06 06:25:19;;;;;;;;;6.00;6.00;;;;;19.72;46.69;102346.16;5097342;27;45540;-52
2022/07/06 06:27:45;;;;;;;;;5.00;5.00;;;;;19.82;46.30;102336.03;5097400;27;45297;-52
2022/07/06 06:30:12;;;;;;;;;8.00;6.33;;;;;19.93;46.15;102338.38;5097234;27;45443;-49
2022/07/06 06:32:37;;;;;;;;;6.00;5.00;;;;;20.05;46.41;102347.81;5097036;27;45390;-49
2022/07/06 06:35:04;;;;;;;;;7.00;5.00;;;;;20.14;45.70;102338.72;5097210;27;45429;-46
2022/07/06 06:37:30;;;;;;;;;5.67;5.67;;;;;20.31;45.34;102334.13;5097334;27;45417;-49
2022/07/06 06:39:55;;;;;;;;;9.00;7.00;;;;;20.49;44.82;102333.94;5097531;27;45376;-52
2022/07/06 06:42:20;;;;;;;;;6.67;6.00;;;;;20.70;44.00;102332.53;5097087;27;46119;-47
2022/07/06 06:44:46;;;;;;;;;5.00;4.67;;;;;21.07;44.11;102327.28;5096967;27;45359;-48
2022/07/06 06:47:11;;;;;;;;;6.00;6.00;;;;;21.63;42.76;102332.53;5097291;27;45378;-49
2022/07/06 06:49:36;;;;;;;;;7.00;5.00;;;;;22.24;41.48;102322.50;5097264;27;45427;-49
2022/07/06 06:52:02;;;;;;;;;9.00;6.75;;;;;22.93;39.47;102324.97;5096963;27;46225;-56
2022/07/06 06:54:27;;;;;;;;;7.25;5.50;;;;;23.60;39.36;102335.50;5096866;27;45365;-54
2022/07/06 06:56:52;;;;;;;;;5.00;5.00;;;;;24.20;36.47;102336.03;5097142;27;45366;-52
2022/07/06 06:59:18;;;;;;;;;5.25;5.00;;;;;24.81;35.87;102327.19;5097184;27;45423;-53
2022/07/06 07:01:43;;;;;;;;;5.00;5.00;;;;;25.62;35.52;102340.88;5096719;27;45431;-49
2022/07/06 07:04:09;;;;;;;;;4.50;4.50;;;;;26.26;34.04;102336.69;5097020;27;45311;-49
2022/07/06 07:06:34;;;;;;;;;5.25;5.25;;;;;26.85;32.54;102338.44;5099712;27;45780;-54
2022/07/06 07:08:59;;;;;;;;;5.00;5.00;;;;;27.49;32.12;102333.91;5100641;27;45200;-50
2022/07/06 07:11:25;;;;;;;;;6.50;4.75;;;;;27.98;34.01;102318.59;5100220;27;45842;-51
2022/07/06 07:13:50;;;;;;;;;5.75;5.75;;;;;28.46;30.10;102337.94;5100328;27;45311;-48
2022/07/06 07:16:16;;;;;;;;;4.75;4.75;;;;;29.05;29.57;102341.88;5100423;27;45272;-52
2022/07/06 07:18:41;;;;;;;;;5.00;4.25;;;;;29.68;28.59;102339.72;5100177;27;45229;-50
2022/07/06 07:21:06;;;;;;;;;6.50;4.25;;;;;30.69;26.68;102341.25;5100125;27;45361;-47
2022/07/06 07:23:32;;;;;;;;;4.75;4.75;;;;;32.52;24.89;102338.13;5100214;27;45456;-49
2022/07/06 07:25:57;;;;;;;;;8.25;4.25;;;;;34.22;22.90;102330.44;5099949;27;45313;-56
2022/07/06 07:28:22;;;;;;;;;3.50;3.50;;;;;35.64;21.00;102323.69;5100494;27;45184;-48
2022/07/06 07:30:48;;;;;;;;;6.00;4.00;;;;;36.61;20.29;102329.84;5099665;27;45354;-54
2022/07/06 07:33:13;;;;;;;;;4.25;4.25;;;;;37.59;19.15;102316.19;5099778;27;45382;-51
2022/07/06 07:35:39;;;;;;;;;5.00;4.00;;;;;38.59;18.20;102334.88;5100202;27;45275;-52
2022/07/06 07:38:04;;;;;;;;;3.00;3.00;;;;;39.35;18.12;102327.41;5099966;27;45429;-51
2022/07/06 07:40:30;;;;;;;;;3.75;3.00;;;;;40.01;17.15;102324.59;5100027;27;46037;-51
2022/07/06 07:42:55;;;;;;;;;3.00;2.50;;;;;40.60;16.26;102317.28;5099921;27;45257;-51
2022/07/06 07:45:20;;;;;;;;;6.00;4.00;;;;;41.28;16.58;102319.03;5100025;27;45471;-50
2022/07/06 07:47:46;;;;;;;;;3.00;3.00;;;;;41.92;15.15;102315.97;5099735;27;45385;-49
2022/07/06 07:50:12;;;;;;;;;4.25;3.00;;;;;42.44;14.86;102313.41;5099773;27;45636;-48
2022/07/06 07:52:37;;;;;;;;;4.50;3.00;;;;;43.00;14.26;102316.41;5099514;27;45323;-47
2022/07/06 07:55:03;;;;;;;;;2.25;2.25;;;;;43.55;13.89;102307.31;5099650;27;45358;-49
2022/07/06 07:57:28;;;;;;;;;5.40;3.40;;;;;44.13;13.30;102313.38;5099773;27;45395;-51
2022/07/06 07:59:54;;;;;;;;;3.75;3.75;;;;;44.62;14.62;102313.72;5099485;27;46297;-54
2022/07/06 08:02:19;;;;;;;;;4.00;4.00;;;;;44.91;12.67;102312.84;5099224;27;45263;-49
2022/07/06 08:04:45;;;;;;;;;4.50;3.50;;;;;45.12;12.74;102312.84;5099547;27;45306;-54
2022/07/06 08:07:10;;;;;;;;;5.75;3.00;;;;;45.38;12.36;102310.59;5099730;27;45207;-56
2022/07/06 08:09:35;;;;;;;;;6.00;3.25;;;;;45.91;12.49;102310.84;5099266;27;47035;-46
2022/07/06 08:12:01;;;;;;;;;6.75;6.00;;;;;46.24;11.81;102300.31;5099340;27;45356;-50
2022/07/06 08:14:26;;;;;;;;;4.75;4.75;;;;;46.49;11.91;102311.53;5098752;27;45358;-52
2022/07/06 08:16:52;;;;;;;;;4.00;3.75;;;;;46.73;12.00;102311.44;5098545;27;45509;-43
2022/07/06 08:19:17;;;;;;;;;4.00;4.00;;;;;46.93;11.45;102304.03;5099034;27;45395;-49
2022/07/06 08:21:43;;;;;;;;;4.50;4.50;;;;;47.06;11.67;102299.16;5099111;27;45395;-46
2022/07/06 08:24:09;;;;;;;;;6.00;4.25;;;;;47.21;11.72;102298.38;5099184;27;45284;-48
2022/07/06 08:26:35;;;;;;;;;4.00;4.00;;;;;47.48;11.00;102307.97;5099298;27;45512;-48
2022/07/06 08:29:00;;;;;;;;;4.25;3.00;;;;;47.64;11.33;102307.97;5099077;27;45408;-50
2022/07/06 08:31:27;;;;;;;;;5.25;3.00;;;;;48.04;11.49;102315.44;5098698;27;45438;-47
2022/07/06 08:33:53;;;;;;;;;4.00;4.00;;;;;48.12;10.58;102308.78;5097600;27;45281;-50
2022/07/06 08:36:19;;;;;;;;;4.80;4.80;;;;;48.19;10.66;102313.78;5099438;27;45449;-46
2022/07/06 08:38:45;;;;;;;;;6.60;5.00;;;;;48.46;10.99;102309.16;5098548;27;46270;-52
2022/07/06 08:41:13;;;;;;;;;4.00;4.00;;;;;48.40;11.24;102316.31;5098860;27;45317;-49
2022/07/06 08:43:39;;;;;;;;;4.60;3.60;;;;;48.34;10.95;102314.94;5098884;27;45229;-47
2022/07/06 08:46:05;;;;;;;;;4.60;4.60;;;;;48.44;10.95;102308.75;5099286;27;45317;-52
2022/07/06 08:48:36;;;;;;;;;3.60;3.60;;;;;48.32;11.52;102311.66;5098505;27;46267;-51
2022/07/06 08:51:01;;;;;;;;;6.00;4.00;;;;;48.32;10.86;102311.66;5098878;27;45330;-54
2022/07/06 08:53:28;;;;;;;;;5.75;4.75;;;;;48.77;10.29;102316.75;5098631;27;45284;-50
2022/07/06 08:55:54;;;;;;;;;3.40;3.40;;;;;49.19;10.66;102316.78;5098812;27;45452;-49
2022/07/06 08:58:23;;;;;;;;;5.60;5.60;;;;;49.52;11.01;102317.38;5098265;27;47424;-60
2022/07/06 09:00:49;;;;;;;;;5.20;4.00;;;;;49.57;10.46;102309.41;5098624;27;45382;-50
2022/07/06 09:03:14;;;;;;;;;6.25;3.50;;;;;49.67;10.48;102297.47;5098414;27;45355;-48
2022/07/06 09:05:41;;;;;;;;;4.75;4.75;;;;;49.90;9.25;102293.81;5098504;27;45342;-47
2022/07/06 09:08:06;;;;;;;;;4.20;4.20;;;;;50.24;9.29;102296.78;5098257;27;46268;-46
2022/07/06 09:10:31;;;;;;;;;4.50;4.00;;;;;50.29;9.65;102291.56;5098263;27;45434;-47
2022/07/06 09:13:05;;;;;;;;;5.25;5.25;;;;;50.39;9.21;102304.25;5098508;27;45280;-51
2022/07/06 09:15:32;;;;;;;;;3.20;3.20;;;;;50.35;8.96;102300.53;5097292;27;45343;-48
2022/07/06 09:17:57;;;;;;;;;3.20;1.60;;;;;50.23;9.26;102300.78;5098296;27;46352;-47
2022/07/06 09:20:24;;;;;;;;;3.25;3.25;;;;;50.02;9.67;102304.06;5098239;27;45223;-61
2022/07/06 09:22:49;;;;;;;;;4.20;4.20;;;;;49.40;10.18;102295.75;5098265;27;45197;-57
2022/07/06 09:25:16;;;;;;;;;5.00;4.75;;;;;48.72;10.76;102297.25;5098584;27;45522;-48
2022/07/06 09:27:45;;;;;;;;;5.60;5.60;;;;;47.48;10.90;102293.88;5097727;27;45357;-54
2022/07/06 09:30:12;;;;;;;;;7.20;5.80;;;;;47.40;10.42;102288.41;5097961;27;45330;-46
2022/07/06 09:32:49;;;;;;;;;5.20;5.00;;;;;47.44;11.00;102290.13;5098249;27;45252;-50
2022/07/06 09:35:29;;;;;;;;;5.40;3.00;;;;;47.59;10.67;102287.69;5098291;27;45360;-49
2022/07/06 09:38:08;;;;;;;;;4.20;2.80;;;;;47.93;11.04;102288.97;5097808;27;46206;-52
2022/07/06 09:40:36;;;;;;;;;4.60;3.40;;;;;48.40;10.45;102285.25;5098001;27;45186;-53
2022/07/06 09:43:19;;;;;;;;;1.40;1.40;;;;;48.79;10.05;102279.63;5097889;27;45487;-50
2022/07/06 09:45:57;;;;;;;;;2.60;2.60;;;;;49.04;10.32;102280.94;5098289;27;45497;-48
2022/07/06 09:48:27;;;;;;;;;3.60;3.60;;;;;49.45;9.55;102279.28;5097779;27;46736;-48
2022/07/06 09:50:59;;;;;;;;;2.00;2.00;;;;;49.94;9.20;102277.72;5097751;27;45360;-52
2022/07/06 09:53:26;;;;;;;;;3.00;1.60;;;;;50.40;9.01;102294.53;5097818;27;45403;-49
2022/07/06 09:55:53;;;;;;;;;2.80;2.80;;;;;50.66;8.92;102288.03;5098312;27;45393;-47
2022/07/06 09:58:19;;;;;;;;;3.40;3.40;;;;;50.91;9.08;102291.19;5097476;27;45979;-50
2022/07/06 10:00:46;;;;;;;;;3.80;3.60;;;;;50.99;9.26;102297.72;5097660;27;45425;-47
2022/07/06 10:03:13;;;;;;;;;2.80;2.80;;;;;50.95;8.36;102288.38;5097714;27;45340;-46
2022/07/06 10:05:41;;;;;;;;;3.80;2.80;;;;;50.92;8.81;102290.78;5097494;27;45265;-50
2022/07/06 10:08:11;;;;;;;;;1.80;1.80;;;;;49.64;8.97;102286.94;5097713;27;46130;-56
2022/07/06 10:10:38;;;;;;;;;2.40;2.00;;;;;48.16;9.92;102292.75;5096062;27;45846;-51
2022/07/06 10:13:07;;;;;;;;;3.80;3.00;;;;;47.93;10.20;102288.97;5097539;27;45276;-48
2022/07/06 10:15:36;;;;;;;;;3.00;3.00;;;;;48.61;10.17;102290.53;5097836;27;45486;-48
2022/07/06 10:18:04;;;;;;;;;4.80;3.80;;;;;48.85;9.92;102290.28;5097145;27;45433;-58
2022/07/06 10:20:36;;;;;;;;;3.60;3.60;;;;;49.35;9.73;102284.75;5097254;27;45458;-48
2022/07/06 10:23:03;;;;;;;;;5.20;3.00;;;;;49.63;10.00;102281.63;5097619;27;45293;-47
2022/07/06 10:25:29;;;;;;;;;5.00;2.80;;;;;49.74;9.24;102285.44;5097605;27;45262;-50
2022/07/06 10:27:55;;;;;;;;;5.00;3.75;;;;;49.65;10.20;102279.25;5096981;27;45757;-58
2022/07/06 10:30:22;;;;;;;;;3.00;2.60;;;;;49.11;9.19;102278.28;5096989;27;45319;-50
2022/07/06 10:32:50;;;;;;;;;4.40;4.00;;;;;49.05;9.25;102281.75;5097231;27;45346;-53
2022/07/06 10:35:17;;;;;;;;;2.60;2.60;;;;;48.51;10.35;102275.03;5097348;27;45366;-50
2022/07/06 10:37:43;;;;;;;;;5.00;5.00;;;;;47.83;10.21;102269.78;5096853;27;45266;-46
2022/07/06 10:43:00;;;;;;;;;4.40;4.40;;;;;46.12;11.74;102280.59;5100899;27;45343;-49
2022/07/06 10:45:28;;;;;;;;;3.80;3.60;;;;;43.65;12.91;102281.72;5101111;27;45293;-46
2022/07/06 10:48:17;;;;;;;;;5.00;5.00;;;;;42.97;13.50;102278.69;5100284;27;46435;-58
2022/07/06 10:50:47;;;;;;;;;3.20;3.20;;;;;42.43;13.90;102280.94;5092674;27;45402;-48
2022/07/06 10:53:14;;;;;;;;;4.00;4.00;;;;;41.67;13.67;102283.13;5100543;27;45460;-58
2022/07/06 10:55:43;;;;;;;;;4.00;2.80;;;;;40.74;14.90;102280.97;5100693;27;45497;-48
2022/07/06 10:58:10;;;;;;;;;4.20;4.00;;;;;39.96;15.14;102282.91;5100343;27;45942;-52
2022/07/06 11:00:52;;;;;;;;;5.00;5.00;;;;;38.84;15.29;102266.13;5100258;27;45461;-50
2022/07/06 11:03:34;;;;;;;;;5.60;4.40;;;;;37.32;16.61;102275.88;5100476;27;45350;-46
2022/07/06 11:06:08;;;;;;;;;4.80;4.40;;;;;36.21;18.00;102278.19;5100491;27;45373;-49
2022/07/06 11:08:52;;;;;;;;;4.60;3.20;;;;;34.83;19.07;102275.44;5100216;27;47022;-51
2022/07/06 11:11:22;;;;;;;;;5.00;3.40;;;;;34.22;19.69;102272.44;5100276;27;45426;-54
2022/07/06 11:13:55;;;;;;;;;3.20;3.20;;;;;34.26;20.74;102277.16;5100157;27;45456;-48
2022/07/06 11:16:25;;;;;;;;;4.00;3.40;;;;;33.94;20.87;102271.69;5100593;27;45260;-52
2022/07/06 11:19:11;;;;;;;;;5.40;5.40;;;;;33.43;21.75;102265.81;5100185;27;45344;-56
2022/07/06 11:21:45;;;;;;;;;4.20;4.20;;;;;32.98;22.38;102266.22;5100158;27;45366;-50
2022/07/06 11:24:14;;;;;;;;;5.00;3.00;;;;;32.63;22.15;102261.13;5100169;27;46206;-48
2022/07/06 11:26:41;;;;;;;;;4.60;4.00;;;;;32.58;22.59;102261.09;5100182;27;45382;-49
2022/07/06 11:29:09;;;;;;;;;5.60;5.20;;;;;32.51;22.83;102248.31;5100141;27;46026;-49
2022/07/06 11:31:37;;;;;;;;;5.00;4.00;;;;;32.74;22.93;102260.13;5099921;27;45441;-65